createdAt,value
2022-09-18T00:02:27.580Z,41.80
2022-09-18T00:04:57.782Z,44.25
2022-09-18T00:07:28.133Z,45.75
2022-09-18T00:09:58.724Z,44.50
2022-09-18T00:12:30.869Z,40.00
2022-09-18T00:17:59.586Z,43.50
2022-09-18T00:20:29.952Z,43.25
2022-09-18T00:23:00.245Z,43.00
2022-09-18T00:25:31.468Z,43.25
2022-09-18T00:28:02.098Z,43.75
2022-09-18T00:30:33.955Z,41.00
2022-09-18T00:33:04.370Z,38.00
2022-09-18T00:35:34.558Z,38.20
2022-09-18T00:38:05.189Z,42.40
2022-09-18T00:40:35.776Z,41.75
2022-09-18T00:43:22.164Z,44.75
2022-09-18T00:46:28.771Z,47.50
2022-09-18T00:49:10.974Z,45.00
2022-09-18T00:51:43.382Z,44.00
2022-09-18T00:54:25.573Z,46.50
2022-09-18T00:56:59.086Z,46.50
2022-09-18T00:59:32.096Z,42.25
2022-09-18T01:02:04.236Z,40.25
2022-09-18T01:04:34.963Z,37.00
2022-09-18T01:07:19.899Z,38.40
2022-09-18T01:09:57.234Z,40.80
2022-09-18T01:12:42.068Z,42.75
2022-09-18T01:15:24.334Z,44.25
2022-09-18T01:18:00.207Z,43.75
2022-09-18T01:20:33.371Z,38.40
2022-09-18T01:23:15.647Z,43.25
2022-09-18T01:26:03.453Z,45.25
2022-09-18T01:28:45.883Z,42.25
2022-09-18T01:31:19.198Z,43.50
2022-09-18T01:33:55.448Z,41.25
2022-09-18T01:36:28.723Z,42.50
2022-09-18T01:39:02.168Z,41.60
2022-09-18T01:41:35.096Z,39.80
2022-09-18T01:44:09.238Z,41.75
2022-09-18T01:46:42.700Z,37.40
2022-09-18T01:49:16.061Z,37.20
2022-09-18T01:51:50.664Z,39.60
2022-09-18T01:54:24.803Z,36.60
2022-09-18T01:57:06.729Z,43.00
2022-09-18T01:59:51.719Z,41.80
2022-09-18T02:02:37.357Z,40.60
2022-09-18T02:05:10.641Z,36.50
2022-09-18T02:08:00.515Z,41.25
2022-09-18T02:10:33.746Z,41.20
2022-09-18T02:13:06.871Z,42.00
2022-09-18T02:15:40.359Z,40.60
2022-09-18T02:18:14.158Z,39.20
2022-09-18T02:20:46.944Z,42.00
2022-09-18T02:23:18.167Z,42.50
2022-09-18T02:25:54.102Z,41.60
2022-09-18T02:28:27.600Z,40.75
2022-09-18T02:30:58.395Z,40.40
2022-09-18T02:33:34.499Z,42.25
2022-09-18T02:36:29.527Z,39.50
2022-09-18T02:39:31.629Z,45.25
2022-09-18T02:42:25.593Z,43.20
2022-09-18T02:45:15.318Z,41.00
2022-09-18T02:47:51.251Z,40.75
2022-09-18T02:50:27.302Z,42.00
2022-09-18T02:53:16.909Z,44.00
2022-09-18T02:55:52.477Z,39.20
2022-09-18T02:58:28.481Z,40.00
2022-09-18T03:01:01.570Z,43.40
2022-09-18T03:03:33.513Z,42.50
2022-09-18T03:06:03.947Z,39.40
2022-09-18T03:08:35.102Z,44.20
2022-09-18T03:11:05.842Z,42.20
2022-09-18T03:13:37.892Z,44.25
2022-09-18T03:16:08.351Z,38.40
2022-09-18T03:18:39.233Z,40.20
2022-09-18T03:21:09.574Z,44.75
2022-09-18T03:23:43.548Z,41.60
2022-09-18T03:26:11.925Z,42.25
2022-09-18T03:28:42.346Z,43.75
2022-09-18T03:31:16.707Z,46.25
2022-09-18T03:33:48.230Z,46.25
2022-09-18T03:36:18.522Z,43.25
2022-09-18T03:38:48.699Z,47.75
2022-09-18T03:41:18.963Z,33.00
2022-09-18T03:43:49.490Z,53.50
2022-09-18T03:46:19.954Z,65.00
2022-09-18T03:48:51.830Z,49.00
2022-09-18T03:51:22.961Z,58.50
2022-09-18T03:53:53.327Z,56.25
2022-09-18T03:56:23.647Z,55.00
2022-09-18T03:58:54.188Z,49.00
2022-09-18T04:01:24.643Z,49.75
2022-09-18T04:03:55.328Z,57.50
2022-09-18T04:06:25.792Z,59.50
2022-09-18T04:08:56.342Z,57.00
2022-09-18T04:11:47.374Z,63.50
2022-09-18T04:14:17.754Z,66.50
2022-09-18T04:16:50.162Z,73.00
2022-09-18T04:19:20.779Z,74.50
2022-09-18T04:21:51.446Z,97.00
2022-09-18T04:24:22.242Z,122.50
2022-09-18T04:26:52.715Z,84.25
2022-09-18T04:29:23.102Z,83.25
2022-09-18T04:31:53.660Z,66.00
2022-09-18T04:34:23.899Z,67.25
2022-09-18T04:36:54.411Z,64.50
2022-09-18T04:39:24.753Z,64.50
2022-09-18T04:41:55.431Z,60.25
2022-09-18T04:44:25.947Z,65.25
2022-09-18T04:46:56.467Z,60.00
2022-09-18T04:49:26.940Z,62.25
2022-09-18T04:51:57.160Z,62.50
2022-09-18T04:54:28.127Z,63.25
2022-09-18T04:56:58.593Z,59.50
2022-09-18T04:59:29.833Z,60.50
2022-09-18T05:02:00.319Z,57.75
2022-09-18T05:04:30.677Z,54.75
2022-09-18T05:07:05.566Z,59.25
2022-09-18T05:09:36.359Z,48.00
2022-09-18T05:12:07.046Z,59.00
2022-09-18T05:14:37.448Z,55.00
2022-09-18T05:17:08.044Z,53.00
2022-09-18T05:19:42.247Z,54.25
2022-09-18T05:22:13.230Z,54.75
2022-09-18T05:24:43.535Z,74.50
2022-09-18T05:27:13.768Z,60.25
2022-09-18T05:29:44.274Z,58.25
2022-09-18T05:32:14.391Z,53.25
2022-09-18T05:34:44.683Z,57.50
2022-09-18T05:37:18.980Z,49.00
2022-09-18T05:39:49.358Z,46.60
2022-09-18T05:42:20.065Z,50.00
2022-09-18T05:45:01.898Z,44.25
2022-09-18T05:47:31.804Z,43.00
2022-09-18T05:50:02.228Z,40.40
2022-09-18T05:52:33.027Z,37.20
2022-09-18T05:55:03.318Z,33.40
2022-09-18T05:57:34.118Z,35.60
2022-09-18T06:00:04.947Z,32.60
2022-09-18T06:02:35.496Z,31.60
2022-09-18T06:05:06.504Z,16.60
2022-09-18T06:07:37.825Z,19.20
2022-09-18T06:10:08.683Z,20.20
2022-09-18T06:12:40.707Z,19.00
2022-09-18T06:15:11.972Z,12.20
2022-09-18T06:17:43.173Z,16.40
2022-09-18T06:20:13.487Z,9.40
2022-09-18T06:22:44.054Z,13.00
2022-09-18T06:25:14.527Z,7.20
2022-09-18T06:27:44.971Z,12.00
2022-09-18T06:30:19.306Z,7.40
2022-09-18T06:33:09.414Z,11.00
2022-09-18T06:35:41.123Z,9.60
2022-09-18T06:38:11.753Z,8.40
2022-09-18T06:40:50.867Z,11.20
2022-09-18T06:43:22.028Z,38.20
2022-09-18T06:45:55.525Z,11.80
2022-09-18T06:48:27.429Z,6.00
2022-09-18T06:50:59.666Z,3.60
2022-09-18T06:53:35.440Z,1.80
2022-09-18T06:56:07.337Z,2.00
2022-09-18T06:58:38.092Z,3.20
2022-09-18T07:01:11.085Z,1.80
2022-09-18T07:03:46.187Z,2.80
2022-09-18T07:06:16.802Z,1.80
2022-09-18T07:08:47.171Z,4.80
2022-09-18T07:11:19.717Z,1.40
2022-09-18T07:13:50.122Z,2.60
2022-09-18T07:16:30.795Z,2.00
2022-09-18T07:19:01.872Z,4.00
2022-09-18T07:21:32.236Z,1.00
2022-09-18T07:24:05.799Z,3.40
2022-09-18T07:26:37.341Z,4.60
2022-09-18T07:29:10.083Z,7.20
2022-09-18T07:31:40.601Z,4.00
2022-09-18T07:34:12.399Z,4.40
2022-09-18T07:36:42.951Z,5.20
2022-09-18T07:39:15.693Z,17.40
2022-09-18T07:41:57.131Z,7.20
2022-09-18T07:44:29.123Z,6.00
2022-09-18T07:47:17.153Z,3.40
2022-09-18T07:53:30.962Z,7.20
2022-09-18T08:36:22.364Z,4.60
2022-09-18T08:42:26.361Z,22.80
2022-09-18T08:45:02.407Z,5.80
2022-09-18T08:47:53.221Z,3.80
2022-09-18T08:50:29.753Z,2.60
2022-09-18T08:53:15.569Z,4.00
2022-09-18T08:55:46.423Z,1.80
2022-09-18T08:58:37.468Z,5.00
2022-09-18T09:01:13.958Z,2.00
2022-09-18T09:04:02.307Z,3.40
2022-09-18T09:07:03.674Z,4.20
2022-09-18T09:10:04.112Z,2.40
2022-09-18T09:12:59.510Z,5.80
2022-09-18T09:15:35.762Z,5.00
2022-09-18T09:18:23.602Z,3.60
2022-09-18T09:21:01.177Z,2.80
2022-09-18T09:23:43.348Z,2.80
2022-09-18T09:26:23.841Z,3.20
2022-09-18T09:29:03.168Z,5.00
2022-09-18T09:31:39.422Z,1.00
2022-09-18T09:34:21.057Z,10.40
2022-09-18T09:36:54.842Z,2.40
2022-09-18T09:39:30.540Z,0.60
2022-09-18T09:42:25.096Z,2.60
2022-09-18T09:45:04.334Z,2.00
2022-09-18T09:47:57.517Z,2.00
2022-09-18T09:50:39.311Z,2.00
2022-09-18T09:53:16.607Z,1.60
2022-09-18T09:56:06.244Z,3.00
2022-09-18T09:58:48.671Z,0.00
2022-09-18T10:01:31.845Z,2.00
2022-09-18T10:04:14.436Z,1.00
2022-09-18T10:06:53.405Z,4.60
2022-09-18T10:09:49.240Z,3.20
2022-09-18T10:12:28.647Z,2.40
2022-09-18T10:15:09.013Z,1.00
2022-09-18T10:17:44.313Z,2.80
2022-09-18T10:20:22.001Z,3.20
2022-09-18T10:22:57.560Z,0.60
2022-09-18T10:25:30.987Z,1.40
2022-09-18T10:28:03.020Z,1.00
2022-09-18T10:30:33.345Z,0.00
2022-09-18T10:33:03.623Z,2.00
2022-09-18T10:35:45.444Z,2.60
2022-09-18T10:38:27.566Z,1.40
2022-09-18T10:41:12.940Z,3.00
2022-09-18T10:43:55.652Z,4.60
2022-09-18T10:46:32.531Z,2.00
2022-09-18T10:49:08.709Z,1.00
2022-09-18T10:51:39.108Z,1.60
2022-09-18T10:54:24.171Z,4.20
2022-09-18T10:57:23.502Z,0.20
2022-09-18T10:59:54.013Z,1.20
2022-09-18T11:02:28.598Z,1.00
2022-09-18T11:04:59.365Z,2.80
2022-09-18T11:07:30.337Z,0.00
2022-09-18T11:10:03.527Z,2.40
2022-09-18T11:12:42.820Z,0.80
2022-09-18T11:15:13.620Z,4.60
2022-09-18T11:20:47.566Z,39.40
2022-09-18T11:23:31.178Z,18.20
2022-09-18T11:26:13.819Z,7.00
2022-09-18T11:28:45.520Z,4.80
2022-09-18T11:31:21.632Z,7.00
2022-09-18T11:33:57.837Z,6.40
2022-09-18T11:36:33.246Z,3.60
2022-09-18T11:39:13.906Z,5.80
2022-09-18T11:41:46.542Z,1.80
2022-09-18T11:44:31.175Z,4.60
2022-09-18T11:47:28.216Z,2.80
2022-09-18T11:50:10.086Z,2.80
2022-09-18T11:52:43.719Z,3.40
2022-09-18T11:55:26.196Z,6.40
2022-09-18T11:58:14.693Z,3.00
2022-09-18T12:00:48.029Z,6.00
2022-09-18T12:03:30.679Z,5.40
2022-09-18T12:06:23.647Z,7.40
2022-09-18T12:09:13.368Z,1.20
2022-09-18T12:12:10.930Z,4.40
2022-09-18T12:14:47.479Z,3.20
2022-09-18T12:17:24.423Z,4.20
2022-09-18T12:19:59.167Z,5.60
2022-09-18T12:22:39.799Z,2.00
2022-09-18T12:25:19.404Z,3.80
2022-09-18T12:28:06.069Z,3.00
2022-09-18T12:30:47.227Z,3.60
2022-09-18T12:33:40.229Z,4.00
2022-09-18T12:39:51.242Z,4.00
2022-09-18T12:42:27.393Z,3.00
2022-09-18T12:45:03.383Z,2.80
2022-09-18T12:47:55.307Z,3.80
2022-09-18T12:50:37.215Z,2.40
2022-09-18T12:53:32.217Z,2.60
2022-09-18T12:56:14.533Z,2.40
2022-09-18T12:58:50.774Z,1.80
2022-09-18T13:01:24.282Z,5.00
2022-09-18T13:03:58.097Z,0.80
2022-09-18T13:06:37.791Z,2.40
2022-09-18T13:09:17.742Z,2.00
2022-09-18T13:11:53.095Z,1.80
2022-09-18T13:14:43.971Z,2.60
2022-09-18T13:17:24.207Z,3.00
2022-09-18T13:20:22.113Z,5.60
2022-09-18T13:22:54.075Z,1.40
2022-09-18T13:25:39.616Z,2.20
2022-09-18T13:28:28.544Z,4.00
2022-09-18T13:31:28.175Z,3.00
2022-09-18T13:34:07.168Z,2.60
2022-09-18T13:36:46.502Z,4.00
2022-09-18T13:39:24.780Z,2.60
2022-09-18T13:42:09.727Z,4.00
2022-09-18T13:44:51.254Z,5.20
2022-09-18T13:47:32.875Z,14.80
2022-09-18T13:50:03.882Z,5.00
2022-09-18T13:52:37.965Z,1.20
2022-09-18T13:55:18.509Z,3.00
2022-09-18T13:57:49.375Z,2.00
2022-09-18T14:00:24.171Z,4.00
2022-09-18T14:03:13.065Z,4.80
2022-09-18T14:05:50.303Z,3.00
2022-09-18T14:08:24.367Z,5.00
2022-09-18T14:11:15.974Z,11.00
2022-09-18T14:13:47.922Z,6.60
2022-09-18T14:16:24.587Z,5.40
2022-09-18T14:19:00.708Z,5.00
2022-09-18T14:21:43.019Z,7.20
2022-09-18T14:24:42.658Z,8.20
2022-09-18T14:27:36.850Z,6.80
2022-09-18T14:30:40.182Z,6.80
2022-09-18T14:33:19.277Z,5.40
2022-09-18T14:36:01.205Z,6.60
2022-09-18T14:38:37.326Z,7.60
2022-09-18T14:41:13.374Z,4.60
2022-09-18T14:43:49.408Z,3.80
2022-09-18T14:46:25.145Z,3.00
2022-09-18T14:48:57.651Z,4.20
2022-09-18T14:51:44.868Z,4.20
2022-09-18T14:54:05.574Z,5.00
2022-09-18T14:56:37.976Z,1.40
2022-09-18T14:59:13.984Z,4.00
2022-09-18T15:01:52.981Z,2.00
2022-09-18T15:04:33.938Z,6.20
2022-09-18T15:07:05.439Z,4.60
2022-09-18T15:09:36.397Z,65.75
2022-09-18T15:12:15.439Z,15.40
2022-09-18T15:14:48.703Z,8.60
2022-09-18T15:17:38.508Z,3.40
2022-09-18T15:20:11.897Z,1.40
2022-09-18T15:22:55.931Z,1.00
2022-09-18T15:25:23.862Z,17.60
2022-09-18T15:27:58.756Z,47.00
2022-09-18T15:30:29.707Z,7.40
2022-09-18T15:33:03.272Z,3.80
2022-09-18T15:35:36.400Z,3.00
2022-09-18T15:38:18.489Z,3.00
2022-09-18T15:40:49.806Z,0.00
2022-09-18T15:43:35.138Z,2.00
2022-09-18T15:46:11.468Z,2.00
2022-09-18T15:48:47.532Z,0.80
2022-09-18T15:51:26.153Z,1.00
2022-09-18T15:54:08.416Z,1.00
2022-09-18T15:56:53.067Z,2.80
2022-09-18T15:59:33.740Z,2.60
2022-09-18T16:05:16.394Z,2.20
2022-09-18T16:08:01.382Z,2.00
2022-09-18T16:10:38.165Z,1.80
2022-09-18T16:13:35.338Z,1.40
2022-09-18T16:16:14.705Z,0.20
2022-09-18T16:21:47.581Z,2.40
2022-09-18T16:24:23.732Z,1.80
2022-09-18T16:26:59.026Z,0.20
2022-09-18T16:29:31.464Z,1.20
2022-09-18T16:32:02.387Z,0.00
2022-09-18T16:34:34.762Z,0.00
2022-09-18T16:37:06.258Z,0.80
2022-09-18T16:39:37.318Z,1.20
2022-09-18T16:42:32.798Z,0.20
2022-09-18T16:45:07.833Z,1.00
2022-09-18T16:47:42.886Z,2.00
2022-09-18T16:50:16.635Z,0.20
2022-09-18T16:52:53.550Z,0.60
2022-09-18T16:55:45.178Z,0.00
2022-09-18T16:58:21.453Z,78.50
2022-09-18T17:00:54.905Z,0.00
2022-09-18T17:03:29.485Z,0.00
2022-09-18T17:06:01.484Z,0.00
2022-09-18T17:08:34.752Z,0.00
2022-09-18T17:11:07.225Z,0.00
2022-09-18T17:13:46.398Z,0.40
2022-09-18T17:16:41.242Z,0.00
2022-09-18T17:18:53.895Z,0.00
2022-09-18T17:21:27.755Z,1.00
2022-09-18T17:24:25.006Z,0.00
2022-09-18T17:26:56.212Z,0.00
2022-09-18T17:29:27.502Z,0.00
2022-09-18T17:31:58.106Z,0.00
2022-09-18T17:34:30.386Z,0.00
2022-09-18T17:37:06.570Z,1.60
2022-09-18T17:40:14.262Z,0.00
2022-09-18T17:42:43.042Z,0.00
2022-09-18T17:45:16.656Z,1.20
2022-09-18T17:47:58.385Z,2.00
2022-09-18T17:50:36.006Z,1.00
2022-09-18T17:56:28.637Z,0.00
2022-09-18T17:59:01.849Z,2.60
2022-09-18T18:01:44.418Z,1.40
2022-09-18T18:04:17.721Z,0.80
2022-09-18T18:06:51.800Z,1.60
2022-09-18T18:09:24.428Z,4.00
2022-09-18T18:11:58.612Z,17.00
2022-09-18T18:14:39.222Z,3.25
2022-09-18T18:17:11.694Z,1.00
2022-09-18T18:19:42.055Z,0.40
2022-09-18T18:22:15.201Z,4.25
2022-09-18T18:24:49.379Z,1.00
2022-09-18T18:27:24.957Z,1.00
2022-09-18T18:29:56.860Z,2.00
2022-09-18T18:32:27.708Z,0.00
2022-09-18T18:35:01.727Z,0.00
2022-09-18T18:37:34.705Z,3.50
2022-09-18T18:40:05.957Z,1.00
2022-09-18T18:42:37.271Z,0.50
2022-09-18T18:45:45.634Z,0.00
2022-09-18T18:48:16.343Z,0.75
2022-09-18T18:50:46.808Z,1.00
2022-09-18T18:53:22.091Z,2.75
2022-09-18T18:55:57.918Z,0.50
2022-09-18T18:58:34.433Z,8.00
2022-09-18T19:04:05.688Z,1.00
2022-09-18T19:06:39.149Z,4.25
2022-09-18T19:09:23.434Z,2.50
2022-09-18T19:12:18.316Z,0.25
2022-09-18T19:14:52.390Z,114.25
2022-09-18T19:17:25.018Z,14.00
2022-09-18T19:20:04.581Z,0.00
2022-09-18T19:26:20.564Z,0.00
2022-09-18T19:29:23.976Z,0.25
2022-09-18T19:32:02.801Z,0.75
2022-09-18T19:34:33.366Z,0.00
2022-09-18T19:37:11.691Z,2.00
2022-09-18T19:39:40.180Z,0.00
2022-09-18T19:42:31.252Z,0.00
2022-09-18T19:45:05.090Z,0.25
2022-09-18T19:47:46.722Z,0.00
2022-09-18T19:50:30.573Z,0.00
2022-09-18T19:53:04.782Z,0.00
2022-09-18T19:55:35.806Z,0.00
2022-09-18T20:01:26.098Z,0.00
2022-09-18T20:03:57.531Z,1.00
2022-09-18T20:06:33.767Z,0.00
2022-09-18T20:09:05.069Z,0.00
2022-09-18T20:11:47.612Z,0.00
2022-09-18T20:14:20.034Z,0.00
2022-09-18T20:16:50.730Z,0.00
2022-09-18T20:22:21.442Z,0.00
2022-09-18T20:24:55.296Z,0.00
2022-09-18T20:27:27.530Z,0.00
2022-09-18T20:30:02.015Z,0.00
2022-09-18T20:32:35.943Z,0.25
2022-09-18T20:35:07.596Z,0.00
2022-09-18T20:37:38.850Z,1.00
2022-09-18T20:40:11.481Z,0.00
2022-09-18T20:42:42.782Z,0.00
2022-09-18T20:45:16.318Z,0.00
2022-09-18T20:47:50.124Z,0.00
2022-09-18T20:50:21.213Z,0.00
2022-09-18T20:52:53.385Z,0.00
2022-09-18T20:55:24.015Z,0.00
2022-09-18T20:57:58.211Z,0.25
2022-09-18T21:00:27.824Z,0.00
2022-09-18T21:03:01.034Z,0.00
2022-09-18T21:05:31.629Z,0.00
2022-09-18T21:08:02.878Z,0.00
2022-09-18T21:10:33.597Z,0.00
2022-09-18T21:13:04.521Z,1.50
2022-09-18T21:15:37.022Z,1.00
2022-09-18T21:18:07.386Z,0.00
2022-09-18T21:20:38.361Z,0.00
2022-09-18T21:23:12.520Z,0.00
2022-09-18T21:25:42.960Z,0.00
2022-09-18T21:28:13.722Z,0.00
2022-09-18T21:30:44.086Z,1.00
2022-09-18T21:33:14.856Z,0.50
2022-09-18T21:35:52.851Z,1.00
2022-09-18T21:38:23.104Z,1.25
2022-09-18T21:40:53.396Z,1.00
2022-09-18T21:43:23.616Z,0.00
2022-09-18T21:45:54.230Z,0.25
2022-09-18T21:48:24.726Z,0.00
2022-09-18T21:50:55.370Z,1.00
2022-09-18T21:53:25.633Z,0.00
2022-09-18T21:56:04.598Z,0.25
2022-09-18T21:58:39.973Z,0.00
2022-09-18T22:01:19.502Z,1.00
2022-09-18T22:03:54.628Z,2.00
2022-09-18T22:06:27.629Z,1.00
2022-09-18T22:08:59.612Z,1.00
2022-09-18T22:11:35.899Z,0.00
2022-09-18T22:14:09.376Z,1.00
2022-09-18T22:16:40.749Z,0.00
2022-09-18T22:19:11.976Z,1.25
2022-09-18T22:21:44.887Z,0.00
2022-09-18T22:24:17.837Z,1.00
2022-09-18T22:26:59.348Z,1.50
2022-09-18T22:29:32.675Z,1.00
2022-09-18T22:32:03.884Z,1.00
2022-09-18T22:34:35.050Z,0.00
2022-09-18T22:37:05.344Z,1.00
2022-09-18T22:39:35.610Z,2.00
2022-09-18T22:42:05.863Z,0.75
2022-09-18T22:44:36.235Z,1.00
2022-09-18T22:47:06.837Z,1.00
2022-09-18T22:49:37.748Z,2.25
2022-09-18T22:52:08.039Z,1.00
2022-09-18T22:54:38.640Z,1.75
2022-09-18T22:57:08.927Z,1.00
2022-09-18T22:59:39.047Z,2.00
2022-09-18T23:02:09.311Z,1.00
2022-09-18T23:04:40.289Z,1.00
2022-09-18T23:07:10.860Z,1.75
2022-09-18T23:09:41.879Z,1.00
2022-09-18T23:12:12.269Z,2.50
2022-09-18T23:14:43.048Z,2.00
2022-09-18T23:17:14.220Z,2.50
2022-09-18T23:19:44.462Z,2.00
2022-09-18T23:22:14.765Z,3.00
2022-09-18T23:24:45.309Z,3.00
2022-09-18T23:27:15.694Z,2.00
2022-09-18T23:29:46.064Z,1.75
2022-09-18T23:32:16.430Z,2.50
2022-09-18T23:34:46.724Z,2.00
2022-09-18T23:37:17.062Z,3.00
2022-09-18T23:39:47.376Z,2.00
2022-09-18T23:42:17.583Z,3.00
2022-09-18T23:44:47.815Z,2.25
2022-09-18T23:47:18.112Z,3.25
2022-09-18T23:49:48.420Z,1.75
2022-09-18T23:52:18.729Z,2.00
2022-09-18T23:54:48.962Z,3.50
2022-09-18T23:57:19.478Z,4.00
2022-09-18T23:59:52.526Z,2.75
